createdAt,value
2018-06-12T00:02:06.591Z,99079.12
2018-06-12T00:04:34.277Z,99074.05
2018-06-12T00:07:01.968Z,99077.86
2018-06-12T00:09:29.707Z,99070.56
2018-06-12T00:11:57.784Z,99071.19
2018-06-12T00:14:25.409Z,99069.46
2018-06-12T00:16:52.954Z,99068.83
2018-06-12T00:19:20.709Z,99072.94
2018-06-12T00:21:48.368Z,99068.94
2018-06-12T00:24:16.027Z,99065.66
2018-06-12T00:26:43.635Z,99074.13
2018-06-12T00:29:11.314Z,99068.80
2018-06-12T00:31:38.942Z,99074.30
2018-06-12T00:34:06.612Z,99079.52
2018-06-12T00:36:34.236Z,99079.92
2018-06-12T00:39:01.958Z,99085.04
2018-06-12T00:41:29.734Z,99075.81
2018-06-12T00:43:58.012Z,99089.34
2018-06-12T00:46:25.684Z,99086.41
2018-06-12T00:48:53.482Z,99089.63
2018-06-12T00:51:22.242Z,99095.47
2018-06-12T00:53:49.901Z,99097.78
2018-06-12T00:56:34.919Z,99099.38
2018-06-12T00:59:02.614Z,99100.11
2018-06-12T01:01:30.269Z,99101.85
2018-06-12T01:03:57.869Z,99106.66
2018-06-12T01:06:25.445Z,99107.23
2018-06-12T01:08:53.037Z,99107.69
2018-06-12T01:11:20.625Z,99104.15
2018-06-12T01:13:48.233Z,99109.57
2018-06-12T01:16:16.035Z,99105.84
2018-06-12T01:18:43.677Z,99113.69
2018-06-12T01:21:11.303Z,99108.24
2018-06-12T01:23:39.103Z,99105.70
2018-06-12T01:26:06.737Z,99110.06
2018-06-12T01:28:34.353Z,99111.69
2018-06-12T01:31:02.881Z,99111.45
2018-06-12T01:33:30.477Z,99112.41
2018-06-12T01:35:58.069Z,99111.31
2018-06-12T01:38:25.677Z,99112.83
2018-06-12T01:40:53.388Z,99110.95
2018-06-12T01:43:21.012Z,99111.31
2018-06-12T01:45:48.676Z,99113.30
2018-06-12T01:48:16.317Z,99113.88
2018-06-12T01:50:43.890Z,99107.59
2018-06-12T01:53:11.576Z,99112.69
2018-06-12T01:55:39.175Z,99110.67
2018-06-12T01:58:06.706Z,99109.59
2018-06-12T02:00:34.316Z,99111.97
2018-06-12T02:03:01.916Z,99107.99
2018-06-12T02:05:29.498Z,99111.72
2018-06-12T02:07:57.123Z,99102.38
2018-06-12T02:10:24.708Z,99111.30
2018-06-12T02:12:52.286Z,99103.68
2018-06-12T02:15:19.872Z,99103.76
2018-06-12T02:17:47.520Z,99109.06
2018-06-12T02:20:15.118Z,99110.58
2018-06-12T02:22:42.770Z,99104.70
2018-06-12T02:25:10.404Z,99107.55
2018-06-12T02:27:38.005Z,99104.64
2018-06-12T02:30:05.577Z,99110.97
2018-06-12T02:32:33.245Z,99108.81
2018-06-12T02:35:00.965Z,99114.81
2018-06-12T02:37:28.540Z,99116.53
2018-06-12T02:39:56.757Z,99120.22
2018-06-12T02:42:24.375Z,99117.28
2018-06-12T02:44:51.966Z,99116.07
2018-06-12T02:47:19.582Z,99123.08
2018-06-12T02:49:47.202Z,99121.56
2018-06-12T02:52:14.846Z,99117.34
2018-06-12T02:54:42.440Z,99122.42
2018-06-12T02:57:10.082Z,99122.50
2018-06-12T02:59:37.657Z,99124.57
2018-06-12T03:02:05.291Z,99119.78
2018-06-12T03:04:32.934Z,99122.48
2018-06-12T03:07:00.594Z,99122.83
2018-06-12T03:09:28.223Z,99125.59
2018-06-12T03:11:55.876Z,99129.98
2018-06-12T03:14:23.520Z,99130.80
2018-06-12T03:16:51.170Z,99134.94
2018-06-12T03:19:18.917Z,99128.98
2018-06-12T03:21:46.909Z,99128.66
2018-06-12T03:24:14.660Z,99130.17
2018-06-12T03:26:42.301Z,99137.69
2018-06-12T03:29:09.956Z,99135.95
2018-06-12T03:31:37.559Z,99126.66
2018-06-12T03:34:05.124Z,99142.97
2018-06-12T03:36:32.744Z,99142.70
2018-06-12T03:39:00.321Z,99140.61
2018-06-12T03:41:27.937Z,99136.62
2018-06-12T03:43:55.557Z,99140.78
2018-06-12T03:46:23.182Z,99140.37
2018-06-12T03:48:50.858Z,99145.44
2018-06-12T03:51:18.407Z,99150.89
2018-06-12T03:53:46.003Z,99146.89
2018-06-12T03:56:13.586Z,99148.93
2018-06-12T03:58:41.177Z,99150.88
2018-06-12T04:01:08.732Z,99148.33
2018-06-12T04:03:36.391Z,99154.92
2018-06-12T04:06:03.973Z,99157.75
2018-06-12T04:08:31.513Z,99152.85
2018-06-12T04:10:59.121Z,99160.70
2018-06-12T04:13:26.713Z,99161.47
2018-06-12T04:15:54.305Z,99167.23
2018-06-12T04:18:22.011Z,99167.50
2018-06-12T04:20:49.549Z,99175.03
2018-06-12T04:23:17.099Z,99166.72
2018-06-12T04:25:44.801Z,99166.47
2018-06-12T04:28:12.378Z,99174.77
2018-06-12T04:30:39.967Z,99181.63
2018-06-12T04:33:07.554Z,99182.82
2018-06-12T04:35:35.234Z,99181.17
2018-06-12T04:38:02.857Z,99177.98
2018-06-12T04:43:04.997Z,99182.28
2018-06-12T04:45:32.719Z,99187.84
2018-06-12T04:48:00.343Z,99193.77
2018-06-12T04:50:27.993Z,99194.09
2018-06-12T04:52:55.650Z,99187.63
2018-06-12T04:55:23.282Z,99184.88
2018-06-12T04:57:51.101Z,99190.57
2018-06-12T05:00:18.684Z,99177.92
2018-06-12T05:02:46.280Z,99199.30
2018-06-12T05:05:13.882Z,99207.04
2018-06-12T05:07:41.540Z,99210.02
2018-06-12T05:10:09.158Z,99217.69
2018-06-12T05:12:36.805Z,99220.26
2018-06-12T05:15:04.546Z,99217.93
2018-06-12T05:17:32.216Z,99227.38
2018-06-12T05:19:59.904Z,99228.44
2018-06-12T05:22:27.502Z,99237.84
2018-06-12T05:24:55.389Z,99232.24
2018-06-12T05:27:23.014Z,99227.62
2018-06-12T05:29:50.745Z,99232.59
2018-06-12T05:32:19.101Z,99223.05
2018-06-12T05:34:47.495Z,99211.25
2018-06-12T05:37:15.084Z,99233.09
2018-06-12T05:39:42.761Z,99239.19
2018-06-12T05:42:10.631Z,99244.98
2018-06-12T05:44:38.404Z,99253.51
2018-06-12T05:47:06.008Z,99255.48
2018-06-12T05:49:33.687Z,99261.19
2018-06-12T05:52:01.327Z,99263.57
2018-06-12T05:54:28.945Z,99261.34
2018-06-12T05:56:56.575Z,99265.95
2018-06-12T05:59:24.269Z,99271.88
2018-06-12T06:01:51.916Z,99269.92
2018-06-12T06:04:19.550Z,99277.89
2018-06-12T06:06:47.146Z,99278.05
2018-06-12T06:09:14.720Z,99280.52
2018-06-12T06:11:42.958Z,99277.40
2018-06-12T06:14:10.629Z,99288.17
2018-06-12T06:16:38.317Z,99282.80
2018-06-12T06:19:05.946Z,99285.78
2018-06-12T06:21:33.634Z,99285.45
2018-06-12T06:24:01.666Z,99286.34
2018-06-12T06:26:29.273Z,99295.03
2018-06-12T06:28:56.906Z,99294.06
2018-06-12T06:31:24.557Z,99294.42
2018-06-12T06:33:52.218Z,99294.91
2018-06-12T06:36:20.039Z,99301.59
2018-06-12T06:38:47.702Z,99298.27
2018-06-12T06:41:15.349Z,99310.17
2018-06-12T06:43:42.969Z,99309.70
2018-06-12T06:46:10.573Z,99312.92
2018-06-12T06:48:38.192Z,99304.41
2018-06-12T06:51:06.022Z,99310.72
2018-06-12T06:53:33.611Z,99323.11
2018-06-12T06:56:01.257Z,99320.45
2018-06-12T06:58:28.891Z,99318.33
2018-06-12T07:00:56.490Z,99322.69
2018-06-12T07:03:24.178Z,99329.11
2018-06-12T07:05:51.832Z,99329.19
2018-06-12T07:08:19.468Z,99320.22
2018-06-12T07:10:47.129Z,99122.76
2018-06-12T07:13:14.741Z,99332.06
2018-06-12T07:15:42.360Z,99327.17
2018-06-12T07:18:09.935Z,99333.91
2018-06-12T07:21:21.445Z,99330.58
2018-06-12T07:23:49.090Z,99333.19
2018-06-12T07:26:16.716Z,99341.60
2018-06-12T07:28:44.309Z,99344.17
2018-06-12T07:31:12.039Z,99339.01
2018-06-12T07:33:39.905Z,99346.78
2018-06-12T07:36:07.537Z,99339.58
2018-06-12T07:38:35.209Z,99349.30
2018-06-12T07:41:02.889Z,99344.73
2018-06-12T07:43:30.577Z,99342.09
2018-06-12T07:45:58.238Z,99345.87
2018-06-12T07:48:25.846Z,99337.08
2018-06-12T07:50:53.410Z,99338.20
2018-06-12T07:53:21.049Z,99346.70
2018-06-12T07:55:48.633Z,99344.01
2018-06-12T07:58:16.314Z,99337.03
2018-06-12T08:00:44.870Z,99341.33
2018-06-12T08:03:12.460Z,99333.77
2018-06-12T08:05:40.107Z,99341.47
2018-06-12T08:08:07.711Z,99335.77
2018-06-12T08:10:36.035Z,99342.96
2018-06-12T08:13:03.783Z,99347.99
2018-06-12T08:15:31.345Z,99346.33
2018-06-12T08:17:59.017Z,99342.48
2018-06-12T08:20:26.703Z,99338.16
2018-06-12T08:22:54.292Z,99343.45
2018-06-12T08:25:21.885Z,99342.48
2018-06-12T08:27:49.530Z,99339.08
2018-06-12T08:30:17.298Z,99333.11
2018-06-12T08:32:44.879Z,99335.13
2018-06-12T08:35:12.577Z,99343.30
2018-06-12T08:37:40.216Z,99338.86
2018-06-12T08:40:07.788Z,99342.71
2018-06-12T08:42:35.446Z,99348.62
2018-06-12T08:45:03.091Z,99351.78
2018-06-12T08:47:30.706Z,99339.06
2018-06-12T08:49:58.310Z,99337.63
2018-06-12T08:52:25.890Z,99345.19
2018-06-12T08:54:54.132Z,99353.13
2018-06-12T08:57:22.080Z,99342.98
2018-06-12T08:59:49.826Z,99341.61
2018-06-12T09:02:17.480Z,99345.76
2018-06-12T09:04:45.173Z,99354.32
2018-06-12T09:07:12.871Z,99353.49
2018-06-12T09:09:40.524Z,99349.34
2018-06-12T09:12:08.200Z,99355.52
2018-06-12T09:14:35.857Z,99347.27
2018-06-12T09:17:03.813Z,99346.42
2018-06-12T09:19:31.458Z,99339.34
2018-06-12T09:21:59.152Z,99345.59
2018-06-12T09:24:26.780Z,99344.52
2018-06-12T09:26:54.450Z,99346.39
2018-06-12T09:29:22.066Z,99352.41
2018-06-12T09:31:49.674Z,99349.73
2018-06-12T09:34:17.399Z,99352.85
2018-06-12T09:36:44.960Z,99351.42
2018-06-12T09:39:12.634Z,99360.92
2018-06-12T09:41:40.317Z,99354.05
2018-06-12T09:44:07.996Z,99352.13
2018-06-12T09:46:35.596Z,99352.88
2018-06-12T09:49:03.277Z,99357.90
2018-06-12T09:51:30.878Z,99356.70
2018-06-12T09:53:58.611Z,99356.90
2018-06-12T09:56:26.247Z,99351.01
2018-06-12T09:58:53.893Z,99357.17
2018-06-12T10:01:22.447Z,99360.64
2018-06-12T10:03:51.885Z,99352.17
2018-06-12T10:06:19.660Z,99357.55
2018-06-12T10:08:47.295Z,99353.59
2018-06-12T10:11:14.938Z,99357.59
2018-06-12T10:13:42.903Z,99363.47
2018-06-12T10:16:10.625Z,99359.82
2018-06-12T10:18:38.276Z,99357.78
2018-06-12T10:21:05.916Z,99369.83
2018-06-12T10:23:33.605Z,99357.78
2018-06-12T10:26:01.292Z,99355.45
2018-06-12T10:28:29.017Z,99361.51
2018-06-12T10:30:56.678Z,99358.99
2018-06-12T10:33:24.291Z,99358.09
2018-06-12T10:35:51.951Z,99363.86
2018-06-12T10:38:19.579Z,99365.11
2018-06-12T10:40:47.228Z,99360.75
2018-06-12T10:43:14.826Z,99357.70
2018-06-12T10:45:42.468Z,99361.93
2018-06-12T10:48:10.128Z,99360.75
2018-06-12T10:50:37.812Z,99363.16
2018-06-12T10:53:05.447Z,99356.32
2018-06-12T10:55:33.094Z,99355.40
2018-06-12T10:58:00.940Z,99355.63
2018-06-12T11:00:28.526Z,99355.52
2018-06-12T11:02:56.238Z,99355.65
2018-06-12T11:05:23.917Z,99360.52
2018-06-12T11:07:52.445Z,99361.70
2018-06-12T11:10:20.097Z,99367.08
2018-06-12T11:12:47.762Z,99363.27
2018-06-12T11:15:15.364Z,99359.00
2018-06-12T11:17:42.992Z,99361.33
2018-06-12T11:20:10.654Z,99352.95
2018-06-12T11:22:38.305Z,99351.28
2018-06-12T11:25:05.928Z,99349.42
2018-06-12T11:27:33.605Z,99350.54
2018-06-12T11:30:01.219Z,99354.93
2018-06-12T11:32:28.857Z,99343.11
2018-06-12T11:34:56.418Z,99342.05
2018-06-12T11:37:24.073Z,99358.97
2018-06-12T11:39:51.736Z,99346.16
2018-06-12T11:42:19.464Z,99349.12
2018-06-12T11:44:47.086Z,99345.02
2018-06-12T11:47:14.713Z,99347.95
2018-06-12T11:49:42.362Z,99339.56
2018-06-12T11:52:10.050Z,99339.87
2018-06-12T11:54:40.210Z,99330.80
2018-06-12T11:57:07.978Z,99337.80
2018-06-12T11:59:35.581Z,99331.81
2018-06-12T12:02:03.345Z,99337.34
2018-06-12T12:04:30.969Z,99339.11
2018-06-12T12:06:58.873Z,99328.63
2018-06-12T12:09:27.114Z,99336.70
2018-06-12T12:11:54.769Z,99341.52
2018-06-12T12:14:22.337Z,99329.35
2018-06-12T12:16:49.962Z,99324.81
2018-06-12T12:19:17.596Z,99322.36
2018-06-12T12:21:45.276Z,99316.48
2018-06-12T12:24:12.888Z,99329.44
2018-06-12T12:26:40.648Z,99322.72
2018-06-12T12:29:08.242Z,99320.75
2018-06-12T12:31:36.009Z,99320.37
2018-06-12T12:34:03.761Z,99318.76
2018-06-12T12:36:31.514Z,99323.88
2018-06-12T12:38:59.149Z,99322.92
2018-06-12T12:41:26.727Z,99326.77
2018-06-12T12:43:54.329Z,99321.12
2018-06-12T12:46:21.909Z,99319.09
2018-06-12T12:48:49.617Z,99325.45
2018-06-12T12:51:17.240Z,99313.50
2018-06-12T12:53:44.831Z,99311.55
2018-06-12T12:56:12.490Z,99312.41
2018-06-12T12:58:40.225Z,99307.09
2018-06-12T13:01:07.929Z,99313.23
2018-06-12T13:03:35.635Z,99307.12
2018-06-12T13:06:03.400Z,99301.76
2018-06-12T13:08:31.022Z,99294.75
2018-06-12T13:10:58.716Z,99291.31
2018-06-12T13:13:27.301Z,99304.23
2018-06-12T13:15:54.971Z,99303.50
2018-06-12T13:18:22.660Z,99311.27
2018-06-12T13:20:50.286Z,99303.66
2018-06-12T13:23:17.932Z,99297.97
2018-06-12T13:25:46.271Z,99303.36
2018-06-12T13:28:13.991Z,99301.98
2018-06-12T13:30:41.601Z,99296.77
2018-06-12T13:33:09.281Z,99299.11
2018-06-12T13:35:36.905Z,99300.37
2018-06-12T13:38:05.155Z,99294.95
2018-06-12T13:40:32.781Z,99286.52
2018-06-12T13:45:45.617Z,99288.77
2018-06-12T13:48:13.280Z,99285.94
2018-06-12T13:50:40.915Z,99285.41
2018-06-12T13:53:08.495Z,99279.14
2018-06-12T13:55:36.161Z,99272.73
2018-06-12T13:58:03.857Z,99268.46
2018-06-12T14:00:31.524Z,99266.94
2018-06-12T14:02:59.138Z,99259.27
2018-06-12T14:05:26.994Z,99262.98
2018-06-12T14:07:54.554Z,99275.03
2018-06-12T14:10:22.152Z,99274.29
2018-06-12T14:12:49.708Z,99282.30
2018-06-12T14:15:17.390Z,99269.66
2018-06-12T14:17:44.994Z,99266.43
2018-06-12T14:20:12.733Z,99271.09
2018-06-12T14:22:40.421Z,99268.36
2018-06-12T14:25:08.084Z,99260.69
2018-06-12T14:27:35.669Z,99259.59
2018-06-12T14:30:03.684Z,99257.72
2018-06-12T14:32:31.335Z,99258.20
2018-06-12T14:34:59.001Z,99254.70
2018-06-12T14:37:26.657Z,99256.33
2018-06-12T14:39:54.311Z,99252.97
2018-06-12T14:42:21.964Z,99253.29
2018-06-12T14:44:49.678Z,99249.63
2018-06-12T14:47:17.315Z,99256.20
2018-06-12T14:49:44.970Z,99258.02
2018-06-12T14:52:12.638Z,99253.74
2018-06-12T14:54:40.284Z,99266.74
2018-06-12T14:57:07.928Z,99263.43
2018-06-12T14:59:35.680Z,99255.32
2018-06-12T15:02:03.362Z,99251.03
2018-06-12T15:04:31.164Z,99241.60
2018-06-12T15:06:58.792Z,99245.27
2018-06-12T15:09:26.428Z,99239.42
2018-06-12T15:11:54.166Z,99234.81
2018-06-12T15:14:22.144Z,99244.59
2018-06-12T15:16:49.805Z,99240.00
2018-06-12T15:19:17.449Z,99252.91
2018-06-12T15:21:45.137Z,99242.64
2018-06-12T15:24:12.820Z,99239.07
2018-06-12T15:26:40.537Z,99236.68
2018-06-12T15:29:08.159Z,99229.45
2018-06-12T15:31:36.033Z,99232.73
2018-06-12T15:34:03.899Z,99216.59
2018-06-12T15:36:31.499Z,99213.34
2018-06-12T15:38:59.241Z,99210.80
2018-06-12T15:41:26.985Z,99215.23
2018-06-12T15:43:54.781Z,99219.62
2018-06-12T15:46:22.491Z,99229.08
2018-06-12T15:48:50.221Z,99224.30
2018-06-12T15:51:17.977Z,99225.60
2018-06-12T15:53:45.708Z,99215.09
2018-06-12T15:56:13.388Z,99205.02
2018-06-12T15:58:41.987Z,99210.81
2018-06-12T16:01:10.085Z,99197.25
2018-06-12T16:03:38.585Z,99204.91
2018-06-12T16:06:06.463Z,99192.38
2018-06-12T16:08:34.417Z,99196.71
2018-06-12T16:11:02.107Z,99190.63
2018-06-12T16:13:30.919Z,99189.08
2018-06-12T16:15:58.698Z,99199.59
2018-06-12T16:18:26.587Z,99194.97
2018-06-12T16:20:55.280Z,99203.73
2018-06-12T16:23:23.575Z,99203.48
2018-06-12T16:25:51.296Z,99203.32
2018-06-12T16:28:18.922Z,99199.21
2018-06-12T16:30:46.952Z,99215.52
2018-06-12T16:33:14.522Z,99203.33
2018-06-12T16:35:42.243Z,99207.16
2018-06-12T16:38:09.896Z,99204.78
2018-06-12T16:40:37.574Z,99209.06
2018-06-12T16:43:05.244Z,99203.79
2018-06-12T16:45:32.910Z,99201.91
2018-06-12T16:48:00.572Z,99206.77
2018-06-12T16:50:28.296Z,99211.97
2018-06-12T16:52:55.935Z,99217.83
2018-06-12T16:55:23.687Z,99212.06
2018-06-12T16:57:51.305Z,99216.20
2018-06-12T17:00:18.999Z,99210.14
2018-06-12T17:02:46.633Z,99207.16
2018-06-12T17:05:14.250Z,99201.42
2018-06-12T17:07:42.023Z,99210.19
2018-06-12T17:10:09.695Z,99206.42
2018-06-12T17:12:44.027Z,99209.75
2018-06-12T17:15:12.075Z,99200.55
2018-06-12T17:17:39.716Z,99189.41
2018-06-12T17:20:07.441Z,99202.90
2018-06-12T17:22:35.134Z,99195.62
2018-06-12T17:25:02.907Z,99187.86
2018-06-12T17:27:30.669Z,99188.97
2018-06-12T17:29:58.359Z,99194.09
2018-06-12T17:32:26.071Z,99188.11
2018-06-12T17:34:53.814Z,99184.73
2018-06-12T17:37:21.732Z,99187.44
2018-06-12T17:39:50.139Z,99184.14
2018-06-12T17:42:17.849Z,99175.37
2018-06-12T17:44:45.464Z,99183.86
2018-06-12T17:47:13.186Z,99184.28
2018-06-12T17:49:42.946Z,99180.50
2018-06-12T17:52:10.686Z,99175.80
2018-06-12T17:54:38.300Z,99175.23
2018-06-12T17:57:05.995Z,99165.90
2018-06-12T17:59:33.635Z,99173.98
2018-06-12T18:02:01.260Z,99174.95
2018-06-12T18:04:28.928Z,99176.24
2018-06-12T18:06:56.626Z,99178.61
2018-06-12T18:09:24.276Z,99175.14
2018-06-12T18:11:52.050Z,99182.41
2018-06-12T18:14:19.682Z,99181.09
2018-06-12T18:16:47.359Z,99189.09
2018-06-12T18:19:15.049Z,99195.77
2018-06-12T18:21:42.714Z,99196.67
2018-06-12T18:24:10.414Z,99206.02
2018-06-12T18:26:38.167Z,99202.80
2018-06-12T18:29:05.771Z,99203.33
2018-06-12T18:31:33.425Z,99210.36
2018-06-12T18:34:01.062Z,99213.38
2018-06-12T18:36:28.859Z,99212.94
2018-06-12T18:38:56.459Z,99206.94
2018-06-12T18:41:24.140Z,99205.61
2018-06-12T18:43:52.318Z,99210.84
2018-06-12T18:46:20.092Z,99206.91
2018-06-12T18:48:47.815Z,99212.20
2018-06-12T18:51:15.485Z,99220.20
2018-06-12T18:53:43.142Z,99226.61
2018-06-12T18:56:10.771Z,99226.99
2018-06-12T18:58:38.647Z,99231.75
2018-06-12T19:01:06.437Z,99222.70
2018-06-12T19:03:34.307Z,99228.47
2018-06-12T19:06:02.065Z,99223.65
2018-06-12T19:08:29.818Z,99225.16
2018-06-12T19:10:57.663Z,99224.00
2018-06-12T19:13:25.325Z,99233.09
2018-06-12T19:15:53.104Z,99234.24
2018-06-12T19:18:20.871Z,99228.55
2018-06-12T19:20:48.706Z,99230.19
2018-06-12T19:23:16.432Z,99236.09
2018-06-12T19:25:44.294Z,99235.11
2018-06-12T19:28:12.308Z,99239.14
2018-06-12T19:30:40.118Z,99250.92
2018-06-12T19:33:07.881Z,99255.82
2018-06-12T19:35:35.737Z,99257.47
2018-06-12T19:38:03.474Z,99256.22
2018-06-12T19:40:31.339Z,99258.66
2018-06-12T19:42:59.071Z,99266.69
2018-06-12T19:45:26.920Z,99251.54
2018-06-12T19:47:54.674Z,99251.27
2018-06-12T19:50:22.582Z,99259.95
2018-06-12T19:52:50.219Z,99258.72
2018-06-12T19:55:18.231Z,99265.15
2018-06-12T19:57:45.883Z,99269.23
2018-06-12T20:00:13.558Z,99266.31
2018-06-12T20:02:41.877Z,99255.08
2018-06-12T20:05:09.607Z,99261.58
2018-06-12T20:07:37.283Z,99264.63
2018-06-12T20:10:04.961Z,99256.06
2018-06-12T20:12:32.838Z,99259.41
2018-06-12T20:15:00.517Z,99261.70
2018-06-12T20:17:28.159Z,99261.14
2018-06-12T20:19:55.918Z,99262.16
2018-06-12T20:22:23.666Z,99253.05
2018-06-12T20:24:51.477Z,99256.20
2018-06-12T20:27:19.514Z,99259.75
2018-06-12T20:29:47.165Z,99254.33
2018-06-12T20:32:14.726Z,99252.03
2018-06-12T20:34:42.491Z,99256.25
2018-06-12T20:37:10.133Z,99256.52
2018-06-12T20:39:37.847Z,99255.00
2018-06-12T20:42:05.611Z,99256.23
2018-06-12T20:44:33.321Z,99257.25
2018-06-12T20:47:01.010Z,99253.79
2018-06-12T20:49:28.737Z,99256.98
2018-06-12T20:51:56.441Z,99251.35
2018-06-12T20:54:24.169Z,99256.34
2018-06-12T20:56:51.869Z,99257.77
2018-06-12T20:59:19.529Z,99252.70
2018-06-12T21:01:47.219Z,99255.61
2018-06-12T21:04:16.062Z,99253.50
2018-06-12T21:06:43.798Z,99255.73
2018-06-12T21:09:11.462Z,99256.57
2018-06-12T21:11:39.120Z,99254.04
2018-06-12T21:14:06.830Z,99252.61
2018-06-12T21:16:34.578Z,99251.19
2018-06-12T21:19:02.295Z,99251.52
2018-06-12T21:21:29.944Z,99247.77
2018-06-12T21:23:57.657Z,99247.27
2018-06-12T21:26:25.282Z,99255.58
2018-06-12T21:28:53.263Z,99255.45
2018-06-12T21:31:20.852Z,99250.38
2018-06-12T21:33:48.540Z,99251.77
2018-06-12T21:36:16.181Z,99260.66
2018-06-12T21:38:43.787Z,99260.89
2018-06-12T21:41:11.429Z,99266.38
2018-06-12T21:43:39.095Z,99266.30
2018-06-12T21:46:06.714Z,99260.20
2018-06-12T21:48:34.309Z,99263.02
2018-06-12T21:51:01.895Z,99262.51
2018-06-12T21:53:29.496Z,99266.09
2018-06-12T21:55:57.201Z,99270.99
2018-06-12T21:58:24.835Z,99270.77
2018-06-12T22:00:52.499Z,99272.95
2018-06-12T22:05:53.538Z,99264.63
2018-06-12T22:08:21.340Z,99264.78
2018-06-12T22:10:49.172Z,99262.19
2018-06-12T22:13:16.859Z,99263.38
2018-06-12T22:15:44.507Z,99263.20
2018-06-12T22:18:12.112Z,99267.06
2018-06-12T22:20:39.869Z,99267.97
2018-06-12T22:23:07.560Z,99268.05
2018-06-12T22:25:35.262Z,99275.79
2018-06-12T22:28:02.938Z,99277.05
2018-06-12T22:30:30.654Z,99274.80
2018-06-12T22:32:58.330Z,99276.41
2018-06-12T22:35:26.019Z,99277.36
2018-06-12T22:37:53.720Z,99276.17
2018-06-12T22:40:21.442Z,99276.95
2018-06-12T22:42:49.230Z,99282.08
2018-06-12T22:45:16.931Z,99284.34
2018-06-12T22:47:44.656Z,99294.69
2018-06-12T22:50:12.380Z,99297.98
2018-06-12T22:52:40.064Z,99298.45
2018-06-12T22:55:07.820Z,99291.53
2018-06-12T22:57:35.586Z,99287.78
2018-06-12T23:00:03.548Z,99284.97
2018-06-12T23:02:31.548Z,99291.53
2018-06-12T23:04:59.202Z,99291.32
2018-06-12T23:07:26.925Z,99294.64
2018-06-12T23:09:54.574Z,99297.80
2018-06-12T23:12:22.345Z,99292.81
2018-06-12T23:14:50.057Z,99298.66
2018-06-12T23:17:17.729Z,99301.77
2018-06-12T23:20:04.016Z,99297.67
2018-06-12T23:22:31.787Z,99307.13
2018-06-12T23:24:59.455Z,99300.09
2018-06-12T23:27:27.176Z,99311.17
2018-06-12T23:29:54.841Z,99307.98
2018-06-12T23:32:22.489Z,99309.30
2018-06-12T23:34:50.977Z,99302.55
2018-06-12T23:37:19.341Z,99300.97
2018-06-12T23:39:47.096Z,99303.13
2018-06-12T23:42:14.825Z,99304.88
2018-06-12T23:44:42.560Z,99296.59
2018-06-12T23:47:10.271Z,99299.81
2018-06-12T23:49:38.047Z,99298.13
2018-06-12T23:52:05.960Z,99298.08
2018-06-12T23:54:33.656Z,99303.80
2018-06-12T23:57:01.338Z,99297.70
2018-06-12T23:59:29.050Z,99301.91
